sensor_id;sensor_type;location;lat;lon;timestamp;P1;durP1;ratioP1;P2;durP2;ratioP2
29330;SDS011;16331;52.528;13.342;2023-04-15T16:53:00;16.80;;;9.57;;
29330;SDS011;16331;52.528;13.342;2023-04-15T16:55:27;19.40;;;9.95;;
29330;SDS011;16331;52.528;13.342;2023-04-15T16:57:53;17.00;;;9.13;;
29330;SDS011;16331;52.528;13.342;2023-04-15T17:00:19;14.38;;;8.25;;
29330;SDS011;16331;52.528;13.342;2023-04-15T17:02:46;32.97;;;14.63;;
29330;SDS011;16331;52.528;13.342;2023-04-15T17:05:12;22.15;;;11.82;;
29330;SDS011;16331;52.528;13.342;2023-04-15T17:07:39;17.30;;;9.05;;
29330;SDS011;16331;52.528;13.342;2023-04-15T17:10:14;14.18;;;8.82;;
29330;SDS011;16331;52.528;13.342;2023-04-15T17:12:40;21.25;;;9.52;;
29330;SDS011;16331;52.528;13.342;2023-04-15T17:15:07;20.65;;;11.45;;
29330;SDS011;16331;52.528;13.342;2023-04-15T17:17:37;16.67;;;10.27;;
29330;SDS011;16331;52.528;13.342;2023-04-15T17:20:03;17.15;;;9.27;;
29330;SDS011;16331;52.528;13.342;2023-04-15T17:22:30;16.80;;;9.95;;
29330;SDS011;16331;52.528;13.342;2023-04-15T17:24:57;15.48;;;8.82;;
29330;SDS011;16331;52.528;13.342;2023-04-15T17:27:24;14.05;;;8.63;;
29330;SDS011;16331;52.528;13.342;2023-04-15T17:29:52;15.27;;;9.38;;
29330;SDS011;16331;52.528;13.342;2023-04-15T17:32:20;13.80;;;7.65;;
29330;SDS011;16331;52.528;13.342;2023-04-15T17:34:49;13.20;;;7.95;;
29330;SDS011;16331;52.528;13.342;2023-04-15T17:37:16;13.48;;;8.02;;
29330;SDS011;16331;52.528;13.342;2023-04-15T17:39:43;12.18;;;7.25;;
29330;SDS011;16331;52.528;13.342;2023-04-15T17:42:09;14.10;;;7.75;;
29330;SDS011;16331;52.528;13.342;2023-04-15T17:44:36;15.43;;;7.72;;
29330;SDS011;16331;52.528;13.342;2023-04-15T17:47:02;16.20;;;8.23;;
29330;SDS011;16331;52.528;13.342;2023-04-15T17:49:30;16.38;;;7.93;;
29330;SDS011;16331;52.528;13.342;2023-04-15T17:51:59;17.45;;;10.02;;
29330;SDS011;16331;52.528;13.342;2023-04-15T17:54:26;16.77;;;9.07;;
29330;SDS011;16331;52.528;13.342;2023-04-15T17:56:58;14.80;;;8.68;;
29330;SDS011;16331;52.528;13.342;2023-04-15T17:59:26;18.33;;;9.68;;
29330;SDS011;16331;52.528;13.342;2023-04-15T18:04:25;14.00;;;8.25;;
29330;SDS011;16331;52.528;13.342;2023-04-15T18:06:51;15.82;;;8.85;;
29330;SDS011;16331;52.528;13.342;2023-04-15T18:09:19;13.30;;;7.90;;
29330;SDS011;16331;52.528;13.342;2023-04-15T18:11:46;14.60;;;8.77;;
29330;SDS011;16331;52.528;13.342;2023-04-15T18:14:13;17.60;;;8.93;;
29330;SDS011;16331;52.528;13.342;2023-04-15T18:16:40;12.77;;;8.40;;
29330;SDS011;16331;52.528;13.342;2023-04-15T18:19:08;13.50;;;8.48;;
29330;SDS011;16331;52.528;13.342;2023-04-15T18:21:35;15.63;;;9.18;;
29330;SDS011;16331;52.528;13.342;2023-04-15T18:24:01;18.42;;;9.38;;
29330;SDS011;16331;52.528;13.342;2023-04-15T18:26:27;17.00;;;9.90;;
29330;SDS011;16331;52.528;13.342;2023-04-15T18:28:53;21.00;;;11.02;;
29330;SDS011;16331;52.528;13.342;2023-04-15T18:31:21;22.15;;;10.75;;
29330;SDS011;16331;52.528;13.342;2023-04-15T18:33:47;19.77;;;10.82;;
29330;SDS011;16331;52.528;13.342;2023-04-15T18:36:13;20.40;;;10.63;;
29330;SDS011;16331;52.528;13.342;2023-04-15T18:38:40;20.83;;;10.73;;
29330;SDS011;16331;52.528;13.342;2023-04-15T18:41:06;24.60;;;11.93;;
29330;SDS011;16331;52.528;13.342;2023-04-15T18:43:32;19.60;;;11.73;;
29330;SDS011;16331;52.528;13.342;2023-04-15T18:45:59;21.15;;;11.45;;
29330;SDS011;16331;52.528;13.342;2023-04-15T18:48:25;18.70;;;10.95;;
29330;SDS011;16331;52.528;13.342;2023-04-15T18:50:52;23.95;;;12.65;;
29330;SDS011;16331;52.528;13.342;2023-04-15T18:53:22;24.33;;;12.30;;
29330;SDS011;16331;52.528;13.342;2023-04-15T18:55:48;18.98;;;10.70;;
29330;SDS011;16331;52.528;13.342;2023-04-15T18:58:14;19.38;;;11.30;;
29330;SDS011;16331;52.528;13.342;2023-04-15T19:00:41;18.05;;;10.60;;
29330;SDS011;16331;52.528;13.342;2023-04-15T19:03:08;23.25;;;11.73;;
29330;SDS011;16331;52.528;13.342;2023-04-15T19:05:34;20.58;;;10.48;;
29330;SDS011;16331;52.528;13.342;2023-04-15T19:08:02;19.38;;;10.70;;
29330;SDS011;16331;52.528;13.342;2023-04-15T19:10:28;19.35;;;11.45;;
29330;SDS011;16331;52.528;13.342;2023-04-15T19:12:54;21.58;;;11.43;;
29330;SDS011;16331;52.528;13.342;2023-04-15T19:15:22;22.52;;;12.00;;
29330;SDS011;16331;52.528;13.342;2023-04-15T19:17:50;20.65;;;11.18;;
29330;SDS011;16331;52.528;13.342;2023-04-15T19:20:16;24.08;;;13.15;;
29330;SDS011;16331;52.528;13.342;2023-04-15T19:22:42;27.63;;;14.90;;
29330;SDS011;16331;52.528;13.342;2023-04-15T19:25:10;31.42;;;15.05;;
29330;SDS011;16331;52.528;13.342;2023-04-15T19:27:36;25.08;;;12.45;;
29330;SDS011;16331;52.528;13.342;2023-04-15T19:30:05;27.33;;;14.15;;
29330;SDS011;16331;52.528;13.342;2023-04-15T19:32:32;26.95;;;14.02;;
29330;SDS011;16331;52.528;13.342;2023-04-15T19:35:01;42.33;;;21.17;;
29330;SDS011;16331;52.528;13.342;2023-04-15T19:37:27;28.95;;;15.15;;
29330;SDS011;16331;52.528;13.342;2023-04-15T19:39:54;29.77;;;16.38;;
29330;SDS011;16331;52.528;13.342;2023-04-15T19:42:25;28.95;;;15.23;;
29330;SDS011;16331;52.528;13.342;2023-04-15T19:44:51;38.30;;;17.33;;
29330;SDS011;16331;52.528;13.342;2023-04-15T19:47:22;33.80;;;17.85;;
29330;SDS011;16331;52.528;13.342;2023-04-15T19:49:48;33.25;;;17.17;;
29330;SDS011;16331;52.528;13.342;2023-04-15T19:52:18;32.92;;;17.33;;
29330;SDS011;16331;52.528;13.342;2023-04-15T19:54:45;31.20;;;16.48;;
29330;SDS011;16331;52.528;13.342;2023-04-15T19:57:12;31.63;;;17.52;;
29330;SDS011;16331;52.528;13.342;2023-04-15T19:59:38;33.85;;;18.35;;
29330;SDS011;16331;52.528;13.342;2023-04-15T20:02:05;37.90;;;18.15;;
29330;SDS011;16331;52.528;13.342;2023-04-15T20:04:31;37.72;;;19.33;;
29330;SDS011;16331;52.528;13.342;2023-04-15T20:06:57;45.22;;;20.30;;
29330;SDS011;16331;52.528;13.342;2023-04-15T20:09:23;31.48;;;17.30;;
29330;SDS011;16331;52.528;13.342;2023-04-15T20:11:50;34.17;;;19.17;;
29330;SDS011;16331;52.528;13.342;2023-04-15T20:14:16;33.97;;;18.40;;
29330;SDS011;16331;52.528;13.342;2023-04-15T20:16:42;35.38;;;18.45;;
29330;SDS011;16331;52.528;13.342;2023-04-15T20:19:08;30.92;;;17.40;;
29330;SDS011;16331;52.528;13.342;2023-04-15T20:21:37;35.10;;;17.92;;
29330;SDS011;16331;52.528;13.342;2023-04-15T20:24:04;32.00;;;16.13;;
29330;SDS011;16331;52.528;13.342;2023-04-15T20:26:31;36.85;;;17.13;;
29330;SDS011;16331;52.528;13.342;2023-04-15T20:28:57;34.50;;;17.45;;
29330;SDS011;16331;52.528;13.342;2023-04-15T20:31:27;33.95;;;17.45;;
29330;SDS011;16331;52.528;13.342;2023-04-15T20:34:01;42.35;;;20.23;;
29330;SDS011;16331;52.528;13.342;2023-04-15T20:36:31;35.50;;;16.65;;
29330;SDS011;16331;52.528;13.342;2023-04-15T20:38:57;30.38;;;16.67;;
29330;SDS011;16331;52.528;13.342;2023-04-15T20:41:23;34.58;;;17.65;;
29330;SDS011;16331;52.528;13.342;2023-04-15T20:43:50;35.45;;;17.25;;
29330;SDS011;16331;52.528;13.342;2023-04-15T20:46:16;34.42;;;17.42;;
29330;SDS011;16331;52.528;13.342;2023-04-15T20:48:42;37.70;;;16.83;;
29330;SDS011;16331;52.528;13.342;2023-04-15T20:51:08;34.22;;;18.00;;
29330;SDS011;16331;52.528;13.342;2023-04-15T20:53:36;35.55;;;18.17;;
29330;SDS011;16331;52.528;13.342;2023-04-15T20:56:05;33.58;;;17.50;;
29330;SDS011;16331;52.528;13.342;2023-04-15T20:58:32;38.50;;;17.98;;
29330;SDS011;16331;52.528;13.342;2023-04-15T21:00:58;33.72;;;17.48;;
29330;SDS011;16331;52.528;13.342;2023-04-15T21:03:25;32.40;;;17.30;;
29330;SDS011;16331;52.528;13.342;2023-04-15T21:05:53;35.95;;;17.05;;
29330;SDS011;16331;52.528;13.342;2023-04-15T21:08:19;33.88;;;17.45;;
29330;SDS011;16331;52.528;13.342;2023-04-15T21:10:56;34.50;;;17.40;;
29330;SDS011;16331;52.528;13.342;2023-04-15T21:13:22;31.48;;;17.95;;
29330;SDS011;16331;52.528;13.342;2023-04-15T21:15:50;31.75;;;16.27;;
29330;SDS011;16331;52.528;13.342;2023-04-15T21:18:18;32.17;;;18.02;;
29330;SDS011;16331;52.528;13.342;2023-04-15T21:20:45;40.55;;;19.83;;
29330;SDS011;16331;52.528;13.342;2023-04-15T21:23:11;40.20;;;21.20;;
29330;SDS011;16331;52.528;13.342;2023-04-15T21:25:37;34.63;;;17.50;;
29330;SDS011;16331;52.528;13.342;2023-04-15T21:28:03;41.60;;;20.95;;
29330;SDS011;16331;52.528;13.342;2023-04-15T21:30:30;31.85;;;17.55;;
29330;SDS011;16331;52.528;13.342;2023-04-15T21:32:56;33.75;;;18.17;;
29330;SDS011;16331;52.528;13.342;2023-04-15T21:35:22;31.90;;;17.70;;
29330;SDS011;16331;52.528;13.342;2023-04-15T21:37:48;40.10;;;18.90;;
29330;SDS011;16331;52.528;13.342;2023-04-15T21:40:16;32.78;;;17.10;;
29330;SDS011;16331;52.528;13.342;2023-04-15T21:42:43;40.33;;;19.63;;
29330;SDS011;16331;52.528;13.342;2023-04-15T21:45:09;40.75;;;20.85;;
29330;SDS011;16331;52.528;13.342;2023-04-15T21:47:35;37.72;;;19.60;;
29330;SDS011;16331;52.528;13.342;2023-04-15T21:50:01;36.47;;;18.77;;
29330;SDS011;16331;52.528;13.342;2023-04-15T21:52:28;33.92;;;16.95;;
29330;SDS011;16331;52.528;13.342;2023-04-15T21:54:54;41.70;;;21.05;;
29330;SDS011;16331;52.528;13.342;2023-04-15T21:57:20;37.35;;;19.23;;
29330;SDS011;16331;52.528;13.342;2023-04-15T21:59:46;35.92;;;17.50;;
29330;SDS011;16331;52.528;13.342;2023-04-15T22:02:12;33.88;;;19.15;;
29330;SDS011;16331;52.528;13.342;2023-04-15T22:04:38;36.70;;;17.35;;
29330;SDS011;16331;52.528;13.342;2023-04-15T22:07:04;59.33;;;25.73;;
29330;SDS011;16331;52.528;13.342;2023-04-15T22:09:30;68.82;;;33.33;;
29330;SDS011;16331;52.528;13.342;2023-04-15T22:11:57;36.88;;;18.08;;
29330;SDS011;16331;52.528;13.342;2023-04-15T22:14:24;32.28;;;16.55;;
29330;SDS011;16331;52.528;13.342;2023-04-15T22:16:53;34.28;;;17.00;;
29330;SDS011;16331;52.528;13.342;2023-04-15T22:19:20;34.85;;;16.90;;
29330;SDS011;16331;52.528;13.342;2023-04-15T22:21:48;40.45;;;18.23;;
29330;SDS011;16331;52.528;13.342;2023-04-15T22:24:15;31.85;;;16.95;;
29330;SDS011;16331;52.528;13.342;2023-04-15T22:26:41;37.95;;;17.58;;
29330;SDS011;16331;52.528;13.342;2023-04-15T22:29:08;35.33;;;17.13;;
29330;SDS011;16331;52.528;13.342;2023-04-15T22:31:34;44.78;;;21.90;;
29330;SDS011;16331;52.528;13.342;2023-04-15T22:34:03;34.10;;;17.77;;
29330;SDS011;16331;52.528;13.342;2023-04-15T22:36:29;38.47;;;19.15;;
29330;SDS011;16331;52.528;13.342;2023-04-15T22:38:55;49.58;;;23.52;;
29330;SDS011;16331;52.528;13.342;2023-04-15T22:41:22;37.25;;;18.50;;
29330;SDS011;16331;52.528;13.342;2023-04-15T22:43:48;37.80;;;19.52;;
29330;SDS011;16331;52.528;13.342;2023-04-15T22:46:14;34.70;;;18.73;;
29330;SDS011;16331;52.528;13.342;2023-04-15T22:48:40;38.63;;;19.38;;
29330;SDS011;16331;52.528;13.342;2023-04-15T22:51:07;40.25;;;19.60;;
29330;SDS011;16331;52.528;13.342;2023-04-15T22:53:33;41.45;;;20.50;;
29330;SDS011;16331;52.528;13.342;2023-04-15T22:55:59;39.95;;;19.08;;
29330;SDS011;16331;52.528;13.342;2023-04-15T22:58:25;35.92;;;19.00;;
29330;SDS011;16331;52.528;13.342;2023-04-15T23:00:51;39.67;;;19.45;;
29330;SDS011;16331;52.528;13.342;2023-04-15T23:03:17;42.38;;;19.75;;
29330;SDS011;16331;52.528;13.342;2023-04-15T23:05:43;41.42;;;20.13;;
29330;SDS011;16331;52.528;13.342;2023-04-15T23:08:10;40.70;;;19.88;;
29330;SDS011;16331;52.528;13.342;2023-04-15T23:10:36;41.80;;;20.98;;
29330;SDS011;16331;52.528;13.342;2023-04-15T23:13:04;39.92;;;19.77;;
29330;SDS011;16331;52.528;13.342;2023-04-15T23:15:31;39.30;;;20.05;;
29330;SDS011;16331;52.528;13.342;2023-04-15T23:17:57;42.65;;;21.45;;
29330;SDS011;16331;52.528;13.342;2023-04-15T23:20:24;41.20;;;18.75;;
29330;SDS011;16331;52.528;13.342;2023-04-15T23:22:50;36.40;;;19.13;;
29330;SDS011;16331;52.528;13.342;2023-04-15T23:25:16;36.90;;;19.08;;
29330;SDS011;16331;52.528;13.342;2023-04-15T23:27:46;42.38;;;20.08;;
29330;SDS011;16331;52.528;13.342;2023-04-15T23:30:12;47.90;;;19.70;;
29330;SDS011;16331;52.528;13.342;2023-04-15T23:32:39;41.30;;;20.10;;
29330;SDS011;16331;52.528;13.342;2023-04-15T23:35:05;43.75;;;20.15;;
29330;SDS011;16331;52.528;13.342;2023-04-15T23:37:31;41.88;;;20.42;;
29330;SDS011;16331;52.528;13.342;2023-04-15T23:39:57;41.55;;;19.85;;
29330;SDS011;16331;52.528;13.342;2023-04-15T23:42:24;41.10;;;18.60;;
29330;SDS011;16331;52.528;13.342;2023-04-15T23:44:51;40.92;;;20.23;;
29330;SDS011;16331;52.528;13.342;2023-04-15T23:47:17;46.90;;;21.20;;
29330;SDS011;16331;52.528;13.342;2023-04-15T23:49:44;44.25;;;21.05;;
29330;SDS011;16331;52.528;13.342;2023-04-15T23:52:12;45.58;;;20.52;;
29330;SDS011;16331;52.528;13.342;2023-04-15T23:54:38;37.70;;;19.65;;
29330;SDS011;16331;52.528;13.342;2023-04-15T23:57:04;44.25;;;21.40;;
29330;SDS011;16331;52.528;13.342;2023-04-15T23:59:30;38.63;;;19.50;;
